sensor_id;sensor_type;location;lat;lon;timestamp;temperature;humidity
81192;DHT22;70665;47.652;-2.730;2024-02-14T00:02:16;13.80;98.70
81192;DHT22;70665;47.652;-2.730;2024-02-14T00:04:41;13.90;98.70
81192;DHT22;70665;47.652;-2.730;2024-02-14T00:07:07;13.90;98.60
81192;DHT22;70665;47.652;-2.730;2024-02-14T00:09:32;13.90;98.70
81192;DHT22;70665;47.652;-2.730;2024-02-14T00:11:58;13.90;98.30
81192;DHT22;70665;47.652;-2.730;2024-02-14T00:14:23;14.00;98.50
81192;DHT22;70665;47.652;-2.730;2024-02-14T00:16:49;14.00;98.50
81192;DHT22;70665;47.652;-2.730;2024-02-14T00:19:16;13.90;98.40
81192;DHT22;70665;47.652;-2.730;2024-02-14T00:21:42;13.90;98.50
81192;DHT22;70665;47.652;-2.730;2024-02-14T00:24:07;14.00;98.10
81192;DHT22;70665;47.652;-2.730;2024-02-14T00:26:33;14.00;98.60
81192;DHT22;70665;47.652;-2.730;2024-02-14T00:28:59;13.90;98.30
81192;DHT22;70665;47.652;-2.730;2024-02-14T00:31:24;13.90;98.30
81192;DHT22;70665;47.652;-2.730;2024-02-14T00:33:50;13.90;98.40
81192;DHT22;70665;47.652;-2.730;2024-02-14T00:36:16;13.90;98.30
81192;DHT22;70665;47.652;-2.730;2024-02-14T00:38:41;13.90;98.50
81192;DHT22;70665;47.652;-2.730;2024-02-14T00:41:07;13.90;98.30
81192;DHT22;70665;47.652;-2.730;2024-02-14T00:43:33;13.90;98.20
81192;DHT22;70665;47.652;-2.730;2024-02-14T00:45:58;13.90;98.40
81192;DHT22;70665;47.652;-2.730;2024-02-14T00:48:24;13.90;98.30
81192;DHT22;70665;47.652;-2.730;2024-02-14T00:50:49;13.90;98.30
81192;DHT22;70665;47.652;-2.730;2024-02-14T00:53:15;13.90;98.20
81192;DHT22;70665;47.652;-2.730;2024-02-14T00:55:41;13.90;98.10
81192;DHT22;70665;47.652;-2.730;2024-02-14T00:58:06;13.80;98.50
81192;DHT22;70665;47.652;-2.730;2024-02-14T01:00:32;13.80;98.40
81192;DHT22;70665;47.652;-2.730;2024-02-14T01:02:58;13.90;98.40
81192;DHT22;70665;47.652;-2.730;2024-02-14T01:05:24;13.80;98.50
81192;DHT22;70665;47.652;-2.730;2024-02-14T01:07:49;13.80;98.60
81192;DHT22;70665;47.652;-2.730;2024-02-14T01:10:16;13.80;98.60
81192;DHT22;70665;47.652;-2.730;2024-02-14T01:12:41;13.90;98.60
81192;DHT22;70665;47.652;-2.730;2024-02-14T01:15:07;13.90;98.50
81192;DHT22;70665;47.652;-2.730;2024-02-14T01:17:33;13.80;98.60
81192;DHT22;70665;47.652;-2.730;2024-02-14T01:20:01;13.90;98.50
81192;DHT22;70665;47.652;-2.730;2024-02-14T01:22:28;13.80;98.60
81192;DHT22;70665;47.652;-2.730;2024-02-14T01:24:53;13.80;98.40
81192;DHT22;70665;47.652;-2.730;2024-02-14T01:27:20;13.80;98.30
81192;DHT22;70665;47.652;-2.730;2024-02-14T01:29:48;13.80;98.40
81192;DHT22;70665;47.652;-2.730;2024-02-14T01:32:14;13.80;98.30
81192;DHT22;70665;47.652;-2.730;2024-02-14T01:34:39;13.80;98.30
81192;DHT22;70665;47.652;-2.730;2024-02-14T01:37:05;13.80;98.30
81192;DHT22;70665;47.652;-2.730;2024-02-14T01:39:31;13.80;98.00
81192;DHT22;70665;47.652;-2.730;2024-02-14T01:41:57;13.80;98.10
81192;DHT22;70665;47.652;-2.730;2024-02-14T01:44:22;13.80;98.00
81192;DHT22;70665;47.652;-2.730;2024-02-14T01:46:48;13.80;98.00
81192;DHT22;70665;47.652;-2.730;2024-02-14T01:49:16;13.80;97.90
81192;DHT22;70665;47.652;-2.730;2024-02-14T01:51:43;13.80;97.80
81192;DHT22;70665;47.652;-2.730;2024-02-14T01:54:12;13.80;97.70
81192;DHT22;70665;47.652;-2.730;2024-02-14T01:56:38;13.80;97.60
81192;DHT22;70665;47.652;-2.730;2024-02-14T01:59:04;13.90;97.50
81192;DHT22;70665;47.652;-2.730;2024-02-14T02:01:31;13.90;97.40
81192;DHT22;70665;47.652;-2.730;2024-02-14T02:03:58;13.80;97.30
81192;DHT22;70665;47.652;-2.730;2024-02-14T02:06:24;13.80;97.30
81192;DHT22;70665;47.652;-2.730;2024-02-14T02:08:51;13.80;97.10
81192;DHT22;70665;47.652;-2.730;2024-02-14T02:11:17;13.70;97.20
81192;DHT22;70665;47.652;-2.730;2024-02-14T02:13:43;13.80;97.10
81192;DHT22;70665;47.652;-2.730;2024-02-14T02:16:09;13.80;97.10
81192;DHT22;70665;47.652;-2.730;2024-02-14T02:18:35;13.80;96.90
81192;DHT22;70665;47.652;-2.730;2024-02-14T02:21:00;13.80;97.10
81192;DHT22;70665;47.652;-2.730;2024-02-14T02:23:29;13.90;96.80
81192;DHT22;70665;47.652;-2.730;2024-02-14T02:25:55;13.90;96.80
81192;DHT22;70665;47.652;-2.730;2024-02-14T02:28:21;13.90;96.70
81192;DHT22;70665;47.652;-2.730;2024-02-14T02:30:46;13.90;96.80
81192;DHT22;70665;47.652;-2.730;2024-02-14T02:33:12;13.90;96.90
81192;DHT22;70665;47.652;-2.730;2024-02-14T02:35:41;14.00;97.00
81192;DHT22;70665;47.652;-2.730;2024-02-14T02:38:07;13.90;96.70
81192;DHT22;70665;47.652;-2.730;2024-02-14T02:40:33;13.90;96.80
81192;DHT22;70665;47.652;-2.730;2024-02-14T02:42:58;13.80;97.00
81192;DHT22;70665;47.652;-2.730;2024-02-14T02:45:25;13.80;97.30
81192;DHT22;70665;47.652;-2.730;2024-02-14T02:47:51;13.80;97.50
81192;DHT22;70665;47.652;-2.730;2024-02-14T02:50:17;13.80;97.70
81192;DHT22;70665;47.652;-2.730;2024-02-14T02:52:43;13.80;97.70
81192;DHT22;70665;47.652;-2.730;2024-02-14T02:55:08;13.80;97.90
81192;DHT22;70665;47.652;-2.730;2024-02-14T02:57:34;13.80;98.00
81192;DHT22;70665;47.652;-2.730;2024-02-14T03:00:02;13.70;98.10
81192;DHT22;70665;47.652;-2.730;2024-02-14T03:02:31;13.80;98.40
81192;DHT22;70665;47.652;-2.730;2024-02-14T03:04:56;13.80;98.40
81192;DHT22;70665;47.652;-2.730;2024-02-14T03:07:22;13.70;98.70
81192;DHT22;70665;47.652;-2.730;2024-02-14T03:09:49;13.70;98.70
81192;DHT22;70665;47.652;-2.730;2024-02-14T03:12:14;13.70;98.60
81192;DHT22;70665;47.652;-2.730;2024-02-14T03:14:44;13.70;98.70
81192;DHT22;70665;47.652;-2.730;2024-02-14T03:17:10;13.70;98.90
81192;DHT22;70665;47.652;-2.730;2024-02-14T03:19:36;13.70;98.80
81192;DHT22;70665;47.652;-2.730;2024-02-14T03:22:04;13.70;98.80
81192;DHT22;70665;47.652;-2.730;2024-02-14T03:24:31;13.70;98.90
81192;DHT22;70665;47.652;-2.730;2024-02-14T03:27:00;13.70;99.00
81192;DHT22;70665;47.652;-2.730;2024-02-14T03:29:26;13.70;98.80
81192;DHT22;70665;47.652;-2.730;2024-02-14T03:31:52;13.80;99.00
81192;DHT22;70665;47.652;-2.730;2024-02-14T03:34:19;13.80;98.90
81192;DHT22;70665;47.652;-2.730;2024-02-14T03:36:45;13.90;98.70
81192;DHT22;70665;47.652;-2.730;2024-02-14T03:39:10;13.90;98.40
81192;DHT22;70665;47.652;-2.730;2024-02-14T03:41:37;13.80;98.50
81192;DHT22;70665;47.652;-2.730;2024-02-14T03:44:03;13.90;98.40
81192;DHT22;70665;47.652;-2.730;2024-02-14T03:46:29;13.90;98.40
81192;DHT22;70665;47.652;-2.730;2024-02-14T03:48:55;13.90;98.20
81192;DHT22;70665;47.652;-2.730;2024-02-14T03:51:23;13.90;97.90
81192;DHT22;70665;47.652;-2.730;2024-02-14T03:53:49;14.00;97.90
81192;DHT22;70665;47.652;-2.730;2024-02-14T03:56:15;14.00;98.00
81192;DHT22;70665;47.652;-2.730;2024-02-14T03:58:41;13.90;97.70
81192;DHT22;70665;47.652;-2.730;2024-02-14T04:01:07;13.90;97.60
81192;DHT22;70665;47.652;-2.730;2024-02-14T04:03:33;14.00;97.70
81192;DHT22;70665;47.652;-2.730;2024-02-14T04:05:59;13.90;97.60
81192;DHT22;70665;47.652;-2.730;2024-02-14T04:08:26;13.90;97.70
81192;DHT22;70665;47.652;-2.730;2024-02-14T04:10:51;14.00;97.40
81192;DHT22;70665;47.652;-2.730;2024-02-14T04:13:19;13.90;97.70
81192;DHT22;70665;47.652;-2.730;2024-02-14T04:15:45;14.00;97.70
81192;DHT22;70665;47.652;-2.730;2024-02-14T04:18:15;14.00;97.50
81192;DHT22;70665;47.652;-2.730;2024-02-14T04:20:41;14.00;97.70
81192;DHT22;70665;47.652;-2.730;2024-02-14T04:23:07;14.00;97.90
81192;DHT22;70665;47.652;-2.730;2024-02-14T04:25:33;14.00;97.50
81192;DHT22;70665;47.652;-2.730;2024-02-14T04:27:59;14.00;97.90
81192;DHT22;70665;47.652;-2.730;2024-02-14T04:30:25;14.00;97.80
81192;DHT22;70665;47.652;-2.730;2024-02-14T04:32:51;14.00;97.80
81192;DHT22;70665;47.652;-2.730;2024-02-14T04:35:19;13.90;97.80
81192;DHT22;70665;47.652;-2.730;2024-02-14T04:37:45;13.90;97.80
81192;DHT22;70665;47.652;-2.730;2024-02-14T04:40:13;14.00;98.00
81192;DHT22;70665;47.652;-2.730;2024-02-14T04:42:39;14.00;97.70
81192;DHT22;70665;47.652;-2.730;2024-02-14T04:45:05;14.00;97.70
81192;DHT22;70665;47.652;-2.730;2024-02-14T04:47:32;14.10;97.30
81192;DHT22;70665;47.652;-2.730;2024-02-14T04:49:57;14.00;97.30
81192;DHT22;70665;47.652;-2.730;2024-02-14T04:52:23;14.00;97.30
81192;DHT22;70665;47.652;-2.730;2024-02-14T04:54:49;14.00;97.40
81192;DHT22;70665;47.652;-2.730;2024-02-14T04:57:14;14.00;97.30
81192;DHT22;70665;47.652;-2.730;2024-02-14T04:59:40;14.10;97.30
81192;DHT22;70665;47.652;-2.730;2024-02-14T05:02:06;14.00;97.00
81192;DHT22;70665;47.652;-2.730;2024-02-14T05:04:32;14.00;97.00
81192;DHT22;70665;47.652;-2.730;2024-02-14T05:07:00;14.10;96.70
81192;DHT22;70665;47.652;-2.730;2024-02-14T05:09:26;14.00;97.00
81192;DHT22;70665;47.652;-2.730;2024-02-14T05:11:51;14.00;96.80
81192;DHT22;70665;47.652;-2.730;2024-02-14T05:14:17;14.00;96.70
81192;DHT22;70665;47.652;-2.730;2024-02-14T05:16:43;13.90;96.70
81192;DHT22;70665;47.652;-2.730;2024-02-14T05:19:09;14.00;96.80
81192;DHT22;70665;47.652;-2.730;2024-02-14T05:21:35;14.00;96.70
81192;DHT22;70665;47.652;-2.730;2024-02-14T05:24:04;14.00;96.80
81192;DHT22;70665;47.652;-2.730;2024-02-14T05:26:30;14.00;97.10
81192;DHT22;70665;47.652;-2.730;2024-02-14T05:28:55;14.00;97.00
81192;DHT22;70665;47.652;-2.730;2024-02-14T05:31:21;14.00;97.10
81192;DHT22;70665;47.652;-2.730;2024-02-14T05:33:47;14.00;97.20
81192;DHT22;70665;47.652;-2.730;2024-02-14T05:36:13;14.00;97.10
81192;DHT22;70665;47.652;-2.730;2024-02-14T05:38:38;14.00;97.20
81192;DHT22;70665;47.652;-2.730;2024-02-14T05:41:04;14.10;97.20
81192;DHT22;70665;47.652;-2.730;2024-02-14T05:43:29;14.10;97.30
81192;DHT22;70665;47.652;-2.730;2024-02-14T05:45:55;14.00;97.10
81192;DHT22;70665;47.652;-2.730;2024-02-14T05:48:20;14.00;97.00
81192;DHT22;70665;47.652;-2.730;2024-02-14T05:50:46;14.10;97.10
81192;DHT22;70665;47.652;-2.730;2024-02-14T05:53:11;14.10;97.10
81192;DHT22;70665;47.652;-2.730;2024-02-14T05:55:38;14.10;97.10
81192;DHT22;70665;47.652;-2.730;2024-02-14T05:58:04;14.10;97.00
81192;DHT22;70665;47.652;-2.730;2024-02-14T06:00:29;14.20;96.80
81192;DHT22;70665;47.652;-2.730;2024-02-14T06:02:55;14.10;96.70
81192;DHT22;70665;47.652;-2.730;2024-02-14T06:05:21;14.10;96.60
81192;DHT22;70665;47.652;-2.730;2024-02-14T06:07:47;14.10;96.70
81192;DHT22;70665;47.652;-2.730;2024-02-14T06:10:12;14.10;96.60
81192;DHT22;70665;47.652;-2.730;2024-02-14T06:12:38;14.10;96.50
81192;DHT22;70665;47.652;-2.730;2024-02-14T06:15:08;14.10;96.40
81192;DHT22;70665;47.652;-2.730;2024-02-14T06:17:34;14.10;96.40
81192;DHT22;70665;47.652;-2.730;2024-02-14T06:20:00;14.10;96.40
81192;DHT22;70665;47.652;-2.730;2024-02-14T06:22:32;14.20;96.50
81192;DHT22;70665;47.652;-2.730;2024-02-14T06:24:59;14.20;96.60
81192;DHT22;70665;47.652;-2.730;2024-02-14T06:27:24;14.10;96.80
81192;DHT22;70665;47.652;-2.730;2024-02-14T06:29:50;14.00;96.60
81192;DHT22;70665;47.652;-2.730;2024-02-14T06:32:15;14.10;96.80
81192;DHT22;70665;47.652;-2.730;2024-02-14T06:34:41;14.00;97.00
81192;DHT22;70665;47.652;-2.730;2024-02-14T06:37:07;14.10;96.90
81192;DHT22;70665;47.652;-2.730;2024-02-14T06:39:32;14.00;96.90
81192;DHT22;70665;47.652;-2.730;2024-02-14T06:41:58;14.00;96.80
81192;DHT22;70665;47.652;-2.730;2024-02-14T06:44:24;13.90;96.90
81192;DHT22;70665;47.652;-2.730;2024-02-14T06:46:49;13.80;96.90
81192;DHT22;70665;47.652;-2.730;2024-02-14T06:49:18;13.70;97.30
81192;DHT22;70665;47.652;-2.730;2024-02-14T06:51:44;13.70;97.10
81192;DHT22;70665;47.652;-2.730;2024-02-14T06:54:10;13.60;97.50
81192;DHT22;70665;47.652;-2.730;2024-02-14T06:56:37;13.60;97.40
81192;DHT22;70665;47.652;-2.730;2024-02-14T06:59:03;13.60;97.70
81192;DHT22;70665;47.652;-2.730;2024-02-14T07:01:29;13.60;97.90
81192;DHT22;70665;47.652;-2.730;2024-02-14T07:03:55;13.70;97.70
81192;DHT22;70665;47.652;-2.730;2024-02-14T07:06:21;13.70;97.80
81192;DHT22;70665;47.652;-2.730;2024-02-14T07:08:47;13.70;97.30
81192;DHT22;70665;47.652;-2.730;2024-02-14T07:11:13;13.70;97.20
81192;DHT22;70665;47.652;-2.730;2024-02-14T07:13:39;13.70;97.10
81192;DHT22;70665;47.652;-2.730;2024-02-14T07:16:04;13.70;97.00
81192;DHT22;70665;47.652;-2.730;2024-02-14T07:18:30;13.60;97.20
81192;DHT22;70665;47.652;-2.730;2024-02-14T07:20:56;13.60;97.20
81192;DHT22;70665;47.652;-2.730;2024-02-14T07:23:22;13.70;97.10
81192;DHT22;70665;47.652;-2.730;2024-02-14T07:25:47;13.70;97.00
81192;DHT22;70665;47.652;-2.730;2024-02-14T07:28:13;13.60;97.10
81192;DHT22;70665;47.652;-2.730;2024-02-14T07:30:38;13.60;96.90
81192;DHT22;70665;47.652;-2.730;2024-02-14T07:33:04;13.70;96.90
81192;DHT22;70665;47.652;-2.730;2024-02-14T07:35:30;13.70;96.90
81192;DHT22;70665;47.652;-2.730;2024-02-14T07:37:55;13.70;96.80
81192;DHT22;70665;47.652;-2.730;2024-02-14T07:40:22;13.80;96.80
81192;DHT22;70665;47.652;-2.730;2024-02-14T07:42:48;14.00;96.20
81192;DHT22;70665;47.652;-2.730;2024-02-14T07:45:14;14.00;95.70
81192;DHT22;70665;47.652;-2.730;2024-02-14T07:47:40;14.00;95.50
81192;DHT22;70665;47.652;-2.730;2024-02-14T07:50:06;14.10;95.20
81192;DHT22;70665;47.652;-2.730;2024-02-14T07:52:32;14.10;95.10
81192;DHT22;70665;47.652;-2.730;2024-02-14T07:54:58;14.10;95.10
81192;DHT22;70665;47.652;-2.730;2024-02-14T07:57:24;14.00;95.10
81192;DHT22;70665;47.652;-2.730;2024-02-14T07:59:50;14.20;95.10
81192;DHT22;70665;47.652;-2.730;2024-02-14T08:02:16;14.10;95.10
81192;DHT22;70665;47.652;-2.730;2024-02-14T08:04:41;14.10;95.30
81192;DHT22;70665;47.652;-2.730;2024-02-14T08:07:07;14.10;94.90
81192;DHT22;70665;47.652;-2.730;2024-02-14T08:09:34;14.20;94.90
81192;DHT22;70665;47.652;-2.730;2024-02-14T08:11:59;14.20;95.10
81192;DHT22;70665;47.652;-2.730;2024-02-14T08:14:25;14.40;95.20
81192;DHT22;70665;47.652;-2.730;2024-02-14T08:16:51;14.30;94.90
81192;DHT22;70665;47.652;-2.730;2024-02-14T08:19:17;14.30;95.00
81192;DHT22;70665;47.652;-2.730;2024-02-14T08:21:44;14.30;95.10
81192;DHT22;70665;47.652;-2.730;2024-02-14T08:24:10;14.40;94.90
81192;DHT22;70665;47.652;-2.730;2024-02-14T08:26:35;14.40;95.10
81192;DHT22;70665;47.652;-2.730;2024-02-14T08:29:01;14.50;94.80
81192;DHT22;70665;47.652;-2.730;2024-02-14T08:31:27;14.40;95.00
81192;DHT22;70665;47.652;-2.730;2024-02-14T08:33:52;14.40;94.80
81192;DHT22;70665;47.652;-2.730;2024-02-14T08:36:19;14.50;94.70
81192;DHT22;70665;47.652;-2.730;2024-02-14T08:38:44;14.50;94.70
81192;DHT22;70665;47.652;-2.730;2024-02-14T08:41:10;14.50;94.70
81192;DHT22;70665;47.652;-2.730;2024-02-14T08:43:36;14.50;94.70
81192;DHT22;70665;47.652;-2.730;2024-02-14T08:46:01;14.50;94.50
81192;DHT22;70665;47.652;-2.730;2024-02-14T08:48:28;14.50;94.60
81192;DHT22;70665;47.652;-2.730;2024-02-14T08:50:56;14.50;94.80
81192;DHT22;70665;47.652;-2.730;2024-02-14T08:53:21;14.50;94.70
81192;DHT22;70665;47.652;-2.730;2024-02-14T08:55:47;14.50;94.70
81192;DHT22;70665;47.652;-2.730;2024-02-14T08:58:13;14.50;94.50
81192;DHT22;70665;47.652;-2.730;2024-02-14T09:00:39;14.60;94.70
81192;DHT22;70665;47.652;-2.730;2024-02-14T09:03:05;14.60;94.40
81192;DHT22;70665;47.652;-2.730;2024-02-14T09:05:31;14.60;94.60
81192;DHT22;70665;47.652;-2.730;2024-02-14T09:07:57;14.60;94.30
81192;DHT22;70665;47.652;-2.730;2024-02-14T09:10:23;14.80;94.20
81192;DHT22;70665;47.652;-2.730;2024-02-14T09:12:48;14.90;93.80
81192;DHT22;70665;47.652;-2.730;2024-02-14T09:15:14;15.00;93.10
81192;DHT22;70665;47.652;-2.730;2024-02-14T09:17:40;14.90;93.30
81192;DHT22;70665;47.652;-2.730;2024-02-14T09:20:08;14.90;93.40
81192;DHT22;70665;47.652;-2.730;2024-02-14T09:22:37;15.00;93.30
81192;DHT22;70665;47.652;-2.730;2024-02-14T09:25:04;15.00;93.20
81192;DHT22;70665;47.652;-2.730;2024-02-14T09:27:30;14.90;92.70
81192;DHT22;70665;47.652;-2.730;2024-02-14T09:29:56;15.10;93.30
81192;DHT22;70665;47.652;-2.730;2024-02-14T09:32:22;15.10;92.90
81192;DHT22;70665;47.652;-2.730;2024-02-14T09:34:47;15.20;92.70
81192;DHT22;70665;47.652;-2.730;2024-02-14T09:37:13;15.20;92.40
81192;DHT22;70665;47.652;-2.730;2024-02-14T09:39:39;15.30;92.10
81192;DHT22;70665;47.652;-2.730;2024-02-14T09:42:11;15.40;91.90
81192;DHT22;70665;47.652;-2.730;2024-02-14T09:44:40;15.40;91.50
81192;DHT22;70665;47.652;-2.730;2024-02-14T09:47:06;15.40;91.60
81192;DHT22;70665;47.652;-2.730;2024-02-14T09:49:34;15.30;91.50
81192;DHT22;70665;47.652;-2.730;2024-02-14T09:52:01;15.30;91.70
81192;DHT22;70665;47.652;-2.730;2024-02-14T09:54:28;15.30;92.30
81192;DHT22;70665;47.652;-2.730;2024-02-14T09:56:57;15.30;92.40
81192;DHT22;70665;47.652;-2.730;2024-02-14T09:59:24;15.30;91.90
81192;DHT22;70665;47.652;-2.730;2024-02-14T10:01:49;15.30;92.30
81192;DHT22;70665;47.652;-2.730;2024-02-14T10:04:17;15.30;92.40
81192;DHT22;70665;47.652;-2.730;2024-02-14T10:06:44;15.30;92.50
81192;DHT22;70665;47.652;-2.730;2024-02-14T10:09:10;15.20;92.60
81192;DHT22;70665;47.652;-2.730;2024-02-14T10:11:37;15.30;92.30
81192;DHT22;70665;47.652;-2.730;2024-02-14T10:14:04;15.30;92.30
81192;DHT22;70665;47.652;-2.730;2024-02-14T10:16:35;15.40;92.70
81192;DHT22;70665;47.652;-2.730;2024-02-14T10:19:01;15.40;92.60
81192;DHT22;70665;47.652;-2.730;2024-02-14T10:21:27;15.40;92.10
81192;DHT22;70665;47.652;-2.730;2024-02-14T10:23:53;15.60;92.00
81192;DHT22;70665;47.652;-2.730;2024-02-14T10:26:23;15.50;91.60
81192;DHT22;70665;47.652;-2.730;2024-02-14T10:28:48;15.60;91.40
81192;DHT22;70665;47.652;-2.730;2024-02-14T10:31:16;15.60;91.70
81192;DHT22;70665;47.652;-2.730;2024-02-14T10:33:42;15.60;91.20
81192;DHT22;70665;47.652;-2.730;2024-02-14T10:36:08;15.80;91.00
81192;DHT22;70665;47.652;-2.730;2024-02-14T10:38:34;15.90;90.60
81192;DHT22;70665;47.652;-2.730;2024-02-14T10:41:01;15.80;89.80
81192;DHT22;70665;47.652;-2.730;2024-02-14T10:43:27;15.90;89.80
81192;DHT22;70665;47.652;-2.730;2024-02-14T10:45:54;16.00;89.70
81192;DHT22;70665;47.652;-2.730;2024-02-14T10:48:22;16.10;89.40
81192;DHT22;70665;47.652;-2.730;2024-02-14T10:50:54;16.10;88.90
81192;DHT22;70665;47.652;-2.730;2024-02-14T10:53:26;16.30;89.20
81192;DHT22;70665;47.652;-2.730;2024-02-14T10:55:55;16.30;88.20
81192;DHT22;70665;47.652;-2.730;2024-02-14T10:58:24;16.40;88.00
81192;DHT22;70665;47.652;-2.730;2024-02-14T11:00:50;16.60;88.00
81192;DHT22;70665;47.652;-2.730;2024-02-14T11:03:16;16.80;86.70
81192;DHT22;70665;47.652;-2.730;2024-02-14T11:05:46;16.70;86.80
81192;DHT22;70665;47.652;-2.730;2024-02-14T11:08:30;16.70;86.30
81192;DHT22;70665;47.652;-2.730;2024-02-14T11:11:00;16.90;87.10
81192;DHT22;70665;47.652;-2.730;2024-02-14T11:13:30;16.90;86.30
81192;DHT22;70665;47.652;-2.730;2024-02-14T11:16:02;16.90;86.40
81192;DHT22;70665;47.652;-2.730;2024-02-14T11:18:30;16.80;85.60
81192;DHT22;70665;47.652;-2.730;2024-02-14T11:20:56;16.90;86.90
81192;DHT22;70665;47.652;-2.730;2024-02-14T11:23:24;17.10;85.90
81192;DHT22;70665;47.652;-2.730;2024-02-14T11:26:15;17.10;85.40
81192;DHT22;70665;47.652;-2.730;2024-02-14T11:28:40;17.10;86.00
81192;DHT22;70665;47.652;-2.730;2024-02-14T11:31:07;17.30;85.20
81192;DHT22;70665;47.652;-2.730;2024-02-14T11:33:33;17.30;84.90
81192;DHT22;70665;47.652;-2.730;2024-02-14T11:35:58;17.40;85.00
81192;DHT22;70665;47.652;-2.730;2024-02-14T11:38:29;17.50;85.30
81192;DHT22;70665;47.652;-2.730;2024-02-14T11:40:55;17.40;83.70
81192;DHT22;70665;47.652;-2.730;2024-02-14T11:43:24;17.40;83.80
81192;DHT22;70665;47.652;-2.730;2024-02-14T11:45:50;17.30;83.80
81192;DHT22;70665;47.652;-2.730;2024-02-14T11:48:18;17.40;83.60
81192;DHT22;70665;47.652;-2.730;2024-02-14T11:50:44;17.60;82.90
81192;DHT22;70665;47.652;-2.730;2024-02-14T11:53:11;17.60;83.10
81192;DHT22;70665;47.652;-2.730;2024-02-14T11:55:40;17.70;82.00
81192;DHT22;70665;47.652;-2.730;2024-02-14T11:58:10;17.80;81.40
81192;DHT22;70665;47.652;-2.730;2024-02-14T12:00:43;17.80;79.70
81192;DHT22;70665;47.652;-2.730;2024-02-14T12:05:43;17.90;80.90
81192;DHT22;70665;47.652;-2.730;2024-02-14T12:08:09;17.90;79.60
81192;DHT22;70665;47.652;-2.730;2024-02-14T12:10:36;18.10;79.60
81192;DHT22;70665;47.652;-2.730;2024-02-14T12:13:07;18.10;80.00
81192;DHT22;70665;47.652;-2.730;2024-02-14T12:15:40;18.30;78.90
81192;DHT22;70665;47.652;-2.730;2024-02-14T12:18:07;18.40;77.90
81192;DHT22;70665;47.652;-2.730;2024-02-14T12:20:33;18.70;78.20
81192;DHT22;70665;47.652;-2.730;2024-02-14T12:22:59;18.90;78.20
81192;DHT22;70665;47.652;-2.730;2024-02-14T12:25:25;18.90;76.50
81192;DHT22;70665;47.652;-2.730;2024-02-14T12:27:52;19.00;77.20
81192;DHT22;70665;47.652;-2.730;2024-02-14T12:30:18;19.00;76.40
81192;DHT22;70665;47.652;-2.730;2024-02-14T12:32:58;18.90;74.60
81192;DHT22;70665;47.652;-2.730;2024-02-14T12:35:23;18.60;75.60
81192;DHT22;70665;47.652;-2.730;2024-02-14T12:37:49;18.40;75.90
81192;DHT22;70665;47.652;-2.730;2024-02-14T12:40:14;18.40;76.50
81192;DHT22;70665;47.652;-2.730;2024-02-14T12:42:40;18.20;76.80
81192;DHT22;70665;47.652;-2.730;2024-02-14T12:45:06;18.10;77.40
81192;DHT22;70665;47.652;-2.730;2024-02-14T12:47:32;18.00;77.20
81192;DHT22;70665;47.652;-2.730;2024-02-14T12:50:00;17.90;77.30
81192;DHT22;70665;47.652;-2.730;2024-02-14T12:52:26;17.90;78.90
81192;DHT22;70665;47.652;-2.730;2024-02-14T12:54:52;18.10;79.30
81192;DHT22;70665;47.652;-2.730;2024-02-14T12:57:18;17.90;79.50
81192;DHT22;70665;47.652;-2.730;2024-02-14T12:59:46;17.90;81.50
81192;DHT22;70665;47.652;-2.730;2024-02-14T13:02:12;17.70;81.20
81192;DHT22;70665;47.652;-2.730;2024-02-14T13:04:38;17.60;80.50
81192;DHT22;70665;47.652;-2.730;2024-02-14T13:07:04;17.70;79.00
81192;DHT22;70665;47.652;-2.730;2024-02-14T13:09:30;18.00;78.90
81192;DHT22;70665;47.652;-2.730;2024-02-14T13:11:56;18.10;78.50
81192;DHT22;70665;47.652;-2.730;2024-02-14T13:14:22;18.10;78.50
81192;DHT22;70665;47.652;-2.730;2024-02-14T13:16:48;18.00;77.20
81192;DHT22;70665;47.652;-2.730;2024-02-14T13:19:13;18.10;78.70
81192;DHT22;70665;47.652;-2.730;2024-02-14T13:21:39;18.10;77.90
81192;DHT22;70665;47.652;-2.730;2024-02-14T13:24:05;18.10;77.90
81192;DHT22;70665;47.652;-2.730;2024-02-14T13:26:31;18.00;77.90
81192;DHT22;70665;47.652;-2.730;2024-02-14T13:28:57;17.90;78.70
81192;DHT22;70665;47.652;-2.730;2024-02-14T13:31:22;17.90;78.70
81192;DHT22;70665;47.652;-2.730;2024-02-14T13:33:48;17.90;78.20
81192;DHT22;70665;47.652;-2.730;2024-02-14T13:36:13;17.70;79.10
81192;DHT22;70665;47.652;-2.730;2024-02-14T13:38:42;17.70;78.90
81192;DHT22;70665;47.652;-2.730;2024-02-14T13:41:09;17.50;78.90
81192;DHT22;70665;47.652;-2.730;2024-02-14T13:43:37;17.50;79.10
81192;DHT22;70665;47.652;-2.730;2024-02-14T13:46:02;17.50;79.50
81192;DHT22;70665;47.652;-2.730;2024-02-14T13:48:28;17.50;79.20
81192;DHT22;70665;47.652;-2.730;2024-02-14T13:50:55;17.50;79.50
81192;DHT22;70665;47.652;-2.730;2024-02-14T13:53:20;17.40;79.60
81192;DHT22;70665;47.652;-2.730;2024-02-14T13:55:48;17.40;79.90
81192;DHT22;70665;47.652;-2.730;2024-02-14T13:58:14;17.30;80.70
81192;DHT22;70665;47.652;-2.730;2024-02-14T14:00:42;17.20;81.00
81192;DHT22;70665;47.652;-2.730;2024-02-14T14:03:08;17.20;80.60
81192;DHT22;70665;47.652;-2.730;2024-02-14T14:05:33;17.00;81.10
81192;DHT22;70665;47.652;-2.730;2024-02-14T14:07:59;16.90;81.00
81192;DHT22;70665;47.652;-2.730;2024-02-14T14:10:26;16.70;81.30
81192;DHT22;70665;47.652;-2.730;2024-02-14T14:12:53;16.70;82.30
81192;DHT22;70665;47.652;-2.730;2024-02-14T14:15:19;16.60;82.50
81192;DHT22;70665;47.652;-2.730;2024-02-14T14:17:44;16.40;83.00
81192;DHT22;70665;47.652;-2.730;2024-02-14T14:20:10;16.30;83.90
81192;DHT22;70665;47.652;-2.730;2024-02-14T14:22:36;16.20;85.10
81192;DHT22;70665;47.652;-2.730;2024-02-14T14:25:04;16.20;84.30
81192;DHT22;70665;47.652;-2.730;2024-02-14T14:27:30;16.30;85.00
81192;DHT22;70665;47.652;-2.730;2024-02-14T14:29:55;16.30;84.70
81192;DHT22;70665;47.652;-2.730;2024-02-14T14:32:21;16.30;84.30
81192;DHT22;70665;47.652;-2.730;2024-02-14T14:34:47;16.20;84.60
81192;DHT22;70665;47.652;-2.730;2024-02-14T14:37:12;16.20;85.00
81192;DHT22;70665;47.652;-2.730;2024-02-14T14:39:38;16.20;85.90
81192;DHT22;70665;47.652;-2.730;2024-02-14T14:42:03;16.10;85.70
81192;DHT22;70665;47.652;-2.730;2024-02-14T14:44:29;16.20;86.10
81192;DHT22;70665;47.652;-2.730;2024-02-14T14:46:56;16.20;86.60
81192;DHT22;70665;47.652;-2.730;2024-02-14T14:49:21;16.30;87.50
81192;DHT22;70665;47.652;-2.730;2024-02-14T14:51:47;16.20;87.30
81192;DHT22;70665;47.652;-2.730;2024-02-14T14:54:13;16.10;87.80
81192;DHT22;70665;47.652;-2.730;2024-02-14T14:56:38;16.10;88.30
81192;DHT22;70665;47.652;-2.730;2024-02-14T14:59:04;16.00;88.60
81192;DHT22;70665;47.652;-2.730;2024-02-14T15:01:30;16.00;89.00
81192;DHT22;70665;47.652;-2.730;2024-02-14T15:03:56;15.90;89.60
81192;DHT22;70665;47.652;-2.730;2024-02-14T15:06:22;15.70;89.80
81192;DHT22;70665;47.652;-2.730;2024-02-14T15:08:47;15.70;90.00
81192;DHT22;70665;47.652;-2.730;2024-02-14T15:11:13;15.50;90.50
81192;DHT22;70665;47.652;-2.730;2024-02-14T15:13:42;15.60;91.10